メインページ
METAR-TAF:

METAR-TAF

空港 :

ベオグラード・ニコラ・テスラ空港

ベオグラード, セルビア

緯度: 44-49N, 経度: 020-17E, 海抜: 96m

現時点の気象観測

当レポートは34分前の12:00(UTC)に作成
変向風 1kt
気温 8°C
湿度 66%
気圧 1028 hPa
視程10km以上
1,500メートル以下は雲なし、積乱雲なし

METAR: LYBE 161200Z VRB01KT CAVOK 08/02 Q1028 NOSIG

時間: 13:34 (12:34 UTC)

予報

当レポートは1時間34分前の11:00(UTC)に作成
予報は16日の 12時(UTC)から 17日の 12時(UTC)まで有効
北東の風 7kt
視程10km以上
1,500メートル以下は雲なし、積乱雲なし
17日の 09時(UTC)から 17日の 11時(UTC)まで徐々に
東/南東の風 12kt

TAF: LYBE 161100Z 1612/1712 05007KT CAVOK TX10/1612Z TN01/1705Z BECMG 1709/1711 11012KT

4,000以上の空港の気象観測と天気予報(METAR報とTAF報)

利用可能な観測所は地図上に黄色い丸と赤い丸で示す。

丸の上にカーソルを重ねると観測所名を参照できる。

次にクリックすると気象観測と天気予報を参照できる。

マップの切り替え:黒色「×」印の緑ボタンをクリックして拡大、「-」印の緑ボタンをクリックして縮小、緑色の三角印をクリックして隣りの地図に切り替え


METAR-TAF: